Time;durP1;ratioP1;P1;durP2;ratioP2;P2;SDS_P1;SDS_P2;PMS_P1;PMS_P2;Temp;Humidity;BMP_temperature;BMP_pressure;BME280_temperature;BME280_humidity;BME280_pressure;Samples;Min_cycle;Max_cycle;Signal;HPM_P1;HPM_P2
2022/01/07 00:00:37;;;;;;;14.38;5.20;;;3.60;99.90;;;;;;5034086;28;20143;-74
2022/01/07 00:03:03;;;;;;;18.25;5.10;;;3.60;99.90;;;;;;5014653;28;20136;-75
2022/01/07 00:05:29;;;;;;;11.18;4.30;;;3.60;99.90;;;;;;5022157;28;20160;-75
2022/01/07 00:07:54;;;;;;;15.65;4.90;;;3.60;99.90;;;;;;5030940;28;20083;-74
2022/01/07 00:10:21;;;;;;;18.75;5.43;;;3.60;99.90;;;;;;5040480;28;20080;-74
2022/01/07 00:12:48;;;;;;;17.48;5.15;;;3.60;99.90;;;;;;5033497;28;20053;-75
2022/01/07 00:15:14;;;;;;;15.63;4.93;;;3.60;99.90;;;;;;5028556;28;20129;-76
2022/01/07 00:17:40;;;;;;;19.58;5.50;;;3.60;99.90;;;;;;5014979;28;20443;-76
2022/01/07 00:20:10;;;;;;;20.15;5.32;;;3.70;99.90;;;;;;5025556;28;20128;-75
2022/01/07 00:22:40;;;;;;;13.90;4.87;;;3.50;99.90;;;;;;5029014;28;20065;-75
2022/01/07 00:25:08;;;;;;;15.98;4.93;;;3.50;99.90;;;;;;5029534;28;20338;-75
2022/01/07 00:27:34;;;;;;;13.57;5.43;;;3.50;99.90;;;;;;5027435;28;20132;-75
2022/01/07 00:30:00;;;;;;;13.70;5.25;;;3.40;99.90;;;;;;5053767;28;20046;-75
2022/01/07 00:32:26;;;;;;;24.95;6.55;;;3.40;99.90;;;;;;5013871;28;20561;-75
2022/01/07 00:34:51;;;;;;;14.27;5.32;;;3.30;99.90;;;;;;5027565;28;20099;-76
2022/01/07 00:37:17;;;;;;;17.10;5.78;;;3.30;99.90;;;;;;5029303;28;20045;-77
2022/01/07 00:39:45;;;;;;;15.70;5.38;;;3.20;99.90;;;;;;5036219;28;20038;-76
2022/01/07 00:42:11;;;;;;;12.27;5.50;;;3.20;99.90;;;;;;5016275;28;20061;-78
2022/01/07 00:44:37;;;;;;;19.17;5.93;;;3.20;99.90;;;;;;5035602;28;20466;-77
2022/01/07 00:47:04;;;;;;;16.13;6.00;;;3.20;99.90;;;;;;5027530;28;20506;-77
2022/01/07 00:49:29;;;;;;;17.77;5.35;;;3.10;99.90;;;;;;5029109;28;20136;-76
2022/01/07 00:51:56;;;;;;;21.45;6.43;;;3.10;99.90;;;;;;5026951;28;20554;-77
2022/01/07 00:54:22;;;;;;;17.35;5.97;;;3.00;99.90;;;;;;5005936;28;20038;-78
2022/01/07 00:56:48;;;;;;;19.48;6.43;;;3.00;99.90;;;;;;5025981;28;20449;-78
2022/01/07 00:59:13;;;;;;;19.00;6.13;;;2.90;99.90;;;;;;5011260;28;20486;-78
2022/01/07 01:01:39;;;;;;;23.27;6.43;;;2.90;99.90;;;;;;5018653;28;20422;-78
2022/01/07 01:04:05;;;;;;;24.70;7.05;;;2.90;99.90;;;;;;5010568;28;20064;-78
2022/01/07 01:06:30;;;;;;;19.60;6.05;;;2.80;99.90;;;;;;5026847;28;20132;-77
2022/01/07 01:08:56;;;;;;;24.15;6.95;;;2.80;99.90;;;;;;5011948;28;20052;-77
2022/01/07 01:11:22;;;;;;;17.83;6.47;;;2.80;99.90;;;;;;5028433;28;20159;-78
2022/01/07 01:13:48;;;;;;;17.40;5.82;;;2.80;99.90;;;;;;5009166;28;20052;-77
2022/01/07 01:16:13;;;;;;;17.30;6.30;;;2.80;99.90;;;;;;4990302;28;20494;-75
2022/01/07 01:18:39;;;;;;;15.90;6.13;;;2.70;99.90;;;;;;5012637;28;20045;-76
2022/01/07 01:21:05;;;;;;;19.63;6.03;;;2.70;99.90;;;;;;5016848;28;20057;-77
2022/01/07 01:23:32;;;;;;;16.50;6.28;;;2.70;99.90;;;;;;4992335;28;20152;-76
2022/01/07 01:25:58;;;;;;;18.30;7.45;;;2.70;99.90;;;;;;5043286;28;20037;-76
2022/01/07 01:28:24;;;;;;;17.00;6.88;;;2.70;99.90;;;;;;5026361;28;20045;-75
2022/01/07 01:30:50;;;;;;;17.52;7.15;;;2.70;99.90;;;;;;5001255;28;20052;-77
2022/01/07 01:33:17;;;;;;;20.08;7.57;;;2.70;99.90;;;;;;5050190;28;20045;-76
2022/01/07 01:35:43;;;;;;;16.55;7.10;;;2.60;99.90;;;;;;4998552;28;20056;-76
2022/01/07 01:38:09;;;;;;;22.92;7.30;;;2.60;99.90;;;;;;5020721;28;20411;-75
2022/01/07 01:40:35;;;;;;;19.00;8.23;;;2.70;99.90;;;;;;5007366;28;20044;-75
2022/01/07 01:43:01;;;;;;;20.73;8.10;;;2.60;99.90;;;;;;4994383;28;20502;-76
2022/01/07 01:45:27;;;;;;;22.08;7.45;;;2.60;99.90;;;;;;5010255;28;20042;-76
2022/01/07 01:47:54;;;;;;;19.90;7.35;;;2.60;99.90;;;;;;5016695;28;20057;-76
2022/01/07 01:50:20;;;;;;;21.58;8.52;;;2.60;99.90;;;;;;5024272;28;20045;-76
2022/01/07 01:52:53;;;;;;;20.60;7.50;;;2.60;99.90;;;;;;5010155;28;20080;-76
2022/01/07 01:55:20;;;;;;;21.42;7.13;;;2.50;99.90;;;;;;5001621;28;20670;-76
2022/01/07 01:57:47;;;;;;;19.23;7.38;;;2.60;99.90;;;;;;5020849;28;20053;-76
2022/01/07 02:00:13;;;;;;;24.88;8.27;;;2.50;99.90;;;;;;5015319;28;20046;-76
2022/01/07 02:02:39;;;;;;;20.70;7.80;;;2.50;99.90;;;;;;5031816;28;20052;-76
2022/01/07 02:05:07;;;;;;;19.38;7.63;;;2.50;99.90;;;;;;5000499;28;20068;-76
2022/01/07 02:07:38;;;;;;;17.17;7.28;;;2.50;99.90;;;;;;5009347;28;20049;-77
2022/01/07 02:10:06;;;;;;;16.73;7.55;;;2.50;99.90;;;;;;5022411;28;20049;-76
2022/01/07 02:12:32;;;;;;;19.58;9.00;;;2.50;99.90;;;;;;5019283;28;20502;-76
2022/01/07 02:14:57;;;;;;;16.98;8.23;;;2.80;99.90;;;;;;5029849;28;20059;-76
2022/01/07 02:17:25;;;;;;;19.00;8.10;;;2.50;99.90;;;;;;5029259;28;20041;-77
2022/01/07 02:19:51;;;;;;;24.45;8.38;;;2.50;99.90;;;;;;5030861;28;20064;-76
2022/01/07 02:22:20;;;;;;;23.05;8.95;;;2.50;99.90;;;;;;5013440;28;20041;-77
2022/01/07 02:24:51;;;;;;;22.38;9.20;;;2.50;99.90;;;;;;5029482;28;20037;-77
2022/01/07 02:27:17;;;;;;;19.97;8.13;;;2.20;99.90;;;;;;5029506;28;20139;-74
2022/01/07 02:29:46;;;;;;;19.20;8.52;;;2.50;99.90;;;;;;5012735;28;20365;-76
2022/01/07 02:32:12;;;;;;;18.15;8.70;;;2.50;99.90;;;;;;5029232;28;20044;-75
2022/01/07 02:34:38;;;;;;;19.10;9.43;;;2.50;99.90;;;;;;5028404;28;20095;-75
2022/01/07 02:37:04;;;;;;;20.40;8.32;;;2.50;99.90;;;;;;5036120;28;20037;-75
2022/01/07 02:39:29;;;;;;;19.80;9.77;;;2.50;99.90;;;;;;5012444;28;20057;-76
2022/01/07 02:41:55;;;;;;;21.55;9.07;;;2.50;99.90;;;;;;5013109;28;20072;-75
2022/01/07 02:44:21;;;;;;;20.90;9.98;;;2.50;99.90;;;;;;5012431;28;20029;-76
2022/01/07 02:46:50;;;;;;;17.45;8.43;;;2.50;99.90;;;;;;5031509;28;20059;-76
2022/01/07 02:49:18;;;;;;;21.55;10.13;;;2.50;99.90;;;;;;5012866;28;20091;-76
2022/01/07 02:51:45;;;;;;;19.65;9.85;;;2.50;99.90;;;;;;5014308;28;20041;-77
2022/01/07 02:54:11;;;;;;;21.27;9.05;;;2.50;99.90;;;;;;5028842;28;20049;-74
2022/01/07 02:56:37;;;;;;;17.95;9.15;;;2.50;99.90;;;;;;5028923;28;20049;-74
2022/01/07 02:59:05;;;;;;;20.60;9.70;;;2.50;99.90;;;;;;5017208;28;20391;-74
2022/01/07 03:01:32;;;;;;;23.77;9.82;;;2.40;99.90;;;;;;5013332;28;20688;-74
2022/01/07 03:03:58;;;;;;;22.10;10.00;;;2.40;99.90;;;;;;5031924;28;20049;-74
2022/01/07 03:06:23;;;;;;;24.27;10.25;;;2.40;99.90;;;;;;5052378;28;20052;-73
2022/01/07 03:08:50;;;;;;;16.45;9.93;;;2.40;99.90;;;;;;5032800;28;20045;-73
2022/01/07 03:11:17;;;;;;;18.95;10.13;;;2.40;99.90;;;;;;5032383;28;20091;-74
2022/01/07 03:13:43;;;;;;;18.85;9.93;;;2.40;99.90;;;;;;5011470;28;20060;-74
2022/01/07 03:16:08;;;;;;;20.00;10.02;;;2.40;99.90;;;;;;5034844;28;20076;-74
2022/01/07 03:18:34;;;;;;;18.42;10.50;;;2.40;99.90;;;;;;5038455;28;20045;-74
2022/01/07 03:21:00;;;;;;;21.80;9.27;;;2.40;99.90;;;;;;5030171;28;20160;-74
2022/01/07 03:23:27;;;;;;;23.40;9.82;;;2.40;99.90;;;;;;5030320;28;20118;-74
2022/01/07 03:25:53;;;;;;;16.83;9.52;;;2.40;99.90;;;;;;5031433;28;20045;-73
2022/01/07 03:28:19;;;;;;;15.93;9.82;;;2.40;99.90;;;;;;5012885;28;20060;-74
2022/01/07 03:30:46;;;;;;;21.75;10.27;;;2.40;99.90;;;;;;5019834;28;20077;-74
2022/01/07 03:33:13;;;;;;;21.52;10.65;;;2.90;99.90;;;;;;5030624;28;20613;-74
2022/01/07 03:35:39;;;;;;;21.00;10.60;;;2.50;99.90;;;;;;5038901;28;20052;-74
2022/01/07 03:38:06;;;;;;;19.85;11.27;;;2.50;99.90;;;;;;5030079;28;20038;-74
2022/01/07 03:40:32;;;;;;;18.27;9.98;;;3.10;99.90;;;;;;5020470;28;20059;-74
2022/01/07 03:42:58;;;;;;;21.77;10.52;;;2.50;99.90;;;;;;5029186;28;20136;-74
2022/01/07 03:45:23;;;;;;;20.95;10.63;;;2.50;99.90;;;;;;5029358;28;20124;-75
2022/01/07 03:47:51;;;;;;;21.42;10.93;;;2.50;99.90;;;;;;5028822;28;20049;-74
2022/01/07 03:50:20;;;;;;;19.95;11.00;;;2.50;99.90;;;;;;5029507;28;20049;-74
2022/01/07 03:52:48;;;;;;;22.77;11.40;;;2.50;99.90;;;;;;5012720;28;20095;-76
2022/01/07 03:55:16;;;;;;;23.63;12.05;;;2.60;99.90;;;;;;5029269;28;20041;-75
2022/01/07 03:57:42;;;;;;;19.88;11.68;;;2.60;99.90;;;;;;5045147;28;20130;-75
2022/01/07 04:00:13;;;;;;;22.42;11.10;;;2.50;99.90;;;;;;5016548;28;20125;-76
2022/01/07 04:02:40;;;;;;;24.92;12.25;;;2.60;99.90;;;;;;5032332;28;20128;-75
2022/01/07 04:05:06;;;;;;;24.15;10.15;;;2.60;99.90;;;;;;5040561;28;20125;-75
2022/01/07 04:07:32;;;;;;;19.38;10.73;;;2.50;99.90;;;;;;5024380;28;20349;-75
2022/01/07 04:09:58;;;;;;;19.88;10.98;;;2.60;99.90;;;;;;5036957;28;20114;-75
2022/01/07 04:12:25;;;;;;;20.42;10.77;;;2.60;99.90;;;;;;5063213;28;20144;-75
2022/01/07 04:15:01;;;;;;;16.95;10.27;;;2.60;99.90;;;;;;5045716;28;20147;-75
2022/01/07 04:17:27;;;;;;;19.58;10.75;;;2.60;99.90;;;;;;5021128;28;20133;-74
2022/01/07 04:19:53;;;;;;;18.73;10.52;;;2.60;99.90;;;;;;5019374;28;20135;-75
2022/01/07 04:22:18;;;;;;;18.73;10.25;;;2.60;99.90;;;;;;5032314;28;20048;-74
2022/01/07 04:24:44;;;;;;;19.00;10.90;;;2.60;99.90;;;;;;5016596;28;20056;-76
2022/01/07 04:27:10;;;;;;;19.30;10.82;;;2.60;99.90;;;;;;5044326;28;20038;-76
2022/01/07 04:29:35;;;;;;;17.35;11.93;;;2.60;99.90;;;;;;5018119;28;20067;-77
2022/01/07 04:32:02;;;;;;;16.75;10.48;;;2.60;99.90;;;;;;5017832;28;20132;-75
2022/01/07 04:34:28;;;;;;;19.55;10.95;;;3.20;99.90;;;;;;5049099;28;20038;-75
2022/01/07 04:36:53;;;;;;;22.33;12.00;;;2.60;99.90;;;;;;4993728;28;20065;-74
2022/01/07 04:39:19;;;;;;;17.00;10.77;;;2.60;99.90;;;;;;5032684;28;20132;-81
2022/01/07 04:41:45;;;;;;;21.52;12.00;;;2.60;99.90;;;;;;5031306;28;20033;-76
2022/01/07 04:44:10;;;;;;;20.17;12.07;;;2.70;99.90;;;;;;5021373;28;20042;-76
2022/01/07 04:46:36;;;;;;;20.20;11.80;;;2.70;99.90;;;;;;5027428;28;20133;-76
2022/01/07 04:49:02;;;;;;;21.70;12.23;;;2.70;99.90;;;;;;5016581;28;20051;-76
2022/01/07 04:51:29;;;;;;;28.70;13.10;;;2.70;99.90;;;;;;5002885;28;20104;-74
2022/01/07 04:53:55;;;;;;;20.08;12.52;;;2.70;99.90;;;;;;5001502;28;20518;-75
2022/01/07 04:56:21;;;;;;;25.63;11.77;;;2.70;99.90;;;;;;5011348;28;20081;-76
2022/01/07 04:58:47;;;;;;;18.48;11.38;;;2.80;99.90;;;;;;5053409;28;20139;-76
2022/01/07 05:01:13;;;;;;;22.73;12.68;;;2.70;99.90;;;;;;5022248;28;20513;-76
2022/01/07 05:03:38;;;;;;;18.10;11.43;;;2.70;99.90;;;;;;5002701;28;20056;-75
2022/01/07 05:06:35;;;;;;;19.02;12.20;;;2.80;99.90;;;;;;4999347;28;20044;-75
2022/01/07 05:08:50;;;;;;;24.40;11.70;;;2.70;99.90;;;;;;5053052;28;20053;-75
2022/01/07 05:11:15;;;;;;;20.50;11.10;;;2.80;99.90;;;;;;5013265;28;20047;-74
2022/01/07 05:13:41;;;;;;;21.95;11.35;;;2.80;99.90;;;;;;5028978;28;20080;-75
2022/01/07 05:16:07;;;;;;;22.85;11.57;;;2.80;99.90;;;;;;5033089;28;20749;-76
2022/01/07 05:18:33;;;;;;;17.08;10.60;;;2.80;99.90;;;;;;5032329;28;20037;-75
2022/01/07 05:20:58;;;;;;;17.88;10.27;;;2.80;99.90;;;;;;5030811;28;20143;-74
2022/01/07 05:23:24;;;;;;;19.67;10.80;;;2.80;99.90;;;;;;5013897;28;20048;-75
2022/01/07 05:25:50;;;;;;;18.10;10.20;;;2.80;99.90;;;;;;5015078;28;20052;-74
2022/01/07 05:28:16;;;;;;;17.85;10.95;;;2.90;99.90;;;;;;5014211;28;20513;-75
2022/01/07 05:30:42;;;;;;;15.35;9.80;;;2.90;99.90;;;;;;5017833;28;20080;-75
2022/01/07 05:33:07;;;;;;;22.25;11.20;;;2.90;99.90;;;;;;5063648;28;20056;-76
2022/01/07 05:35:33;;;;;;;16.67;10.60;;;2.90;99.90;;;;;;5027810;28;20487;-75
2022/01/07 05:37:59;;;;;;;17.13;10.07;;;2.90;99.90;;;;;;5027706;28;20048;-75
2022/01/07 05:40:25;;;;;;;19.35;10.95;;;2.90;99.90;;;;;;5026287;28;20511;-75
2022/01/07 05:42:50;;;;;;;17.25;9.68;;;3.00;99.90;;;;;;5013396;28;20037;-75
2022/01/07 05:45:16;;;;;;;21.67;11.40;;;3.00;99.90;;;;;;5012396;28;20037;-76
2022/01/07 05:47:42;;;;;;;17.83;10.63;;;3.00;99.90;;;;;;5061990;28;20044;-75
2022/01/07 05:50:08;;;;;;;18.25;10.25;;;3.00;99.90;;;;;;5065237;28;20448;-74
2022/01/07 05:52:34;;;;;;;21.95;11.25;;;3.00;99.90;;;;;;5058740;28;20045;-76
2022/01/07 05:55:00;;;;;;;15.85;10.75;;;3.10;99.90;;;;;;5032956;28;20041;-78
2022/01/07 05:57:27;;;;;;;19.55;10.80;;;3.00;99.90;;;;;;5030409;28;20041;-75
2022/01/07 05:59:53;;;;;;;20.13;10.77;;;3.10;99.90;;;;;;5032394;28;20076;-76
2022/01/07 06:02:19;;;;;;;19.60;10.43;;;3.10;99.90;;;;;;5021823;28;20483;-75
2022/01/07 06:04:44;;;;;;;21.23;11.30;;;3.10;99.90;;;;;;5017051;28;20072;-75
2022/01/07 06:07:10;;;;;;;16.27;10.68;;;3.10;99.90;;;;;;5019997;28;20053;-75
2022/01/07 06:09:36;;;;;;;16.98;10.27;;;3.10;99.90;;;;;;5006392;28;20175;-75
2022/01/07 06:12:01;;;;;;;18.92;10.35;;;3.10;99.90;;;;;;5003447;28;20045;-75
2022/01/07 06:14:28;;;;;;;17.65;11.05;;;3.10;99.90;;;;;;5029679;28;20505;-75
2022/01/07 06:16:54;;;;;;;20.27;10.38;;;3.10;99.90;;;;;;5004663;28;20838;-76
2022/01/07 06:19:20;;;;;;;21.40;11.02;;;3.10;99.90;;;;;;5018776;28;20165;-75
2022/01/07 06:21:46;;;;;;;18.60;12.10;;;3.10;99.90;;;;;;5017950;28;20090;-75
2022/01/07 06:24:12;;;;;;;19.73;11.52;;;3.10;99.90;;;;;;5021892;28;20045;-76
2022/01/07 06:26:38;;;;;;;16.58;11.48;;;3.50;99.90;;;;;;5022719;28;20494;-75
2022/01/07 06:29:04;;;;;;;18.98;11.00;;;2.70;99.90;;;;;;5020124;28;20100;-75
2022/01/07 06:31:30;;;;;;;16.65;11.05;;;3.10;99.90;;;;;;5004941;28;20468;-75
2022/01/07 06:33:58;;;;;;;22.35;11.73;;;3.10;99.90;;;;;;5002132;28;20049;-73
2022/01/07 06:36:24;;;;;;;18.95;10.50;;;3.10;99.90;;;;;;4992514;28;20170;-74
2022/01/07 06:38:49;;;;;;;20.90;13.00;;;3.20;99.90;;;;;;5016809;28;20041;-74
2022/01/07 06:41:15;;;;;;;19.75;12.35;;;3.10;99.90;;;;;;5025691;28;20068;-74
2022/01/07 06:43:43;;;;;;;16.33;11.50;;;3.20;99.90;;;;;;5027774;28;20107;-74
2022/01/07 06:46:09;;;;;;;19.40;11.77;;;3.20;99.90;;;;;;5008020;28;20045;-74
2022/01/07 06:48:35;;;;;;;19.70;10.73;;;3.20;99.90;;;;;;5026454;28;20050;-74
2022/01/07 06:51:00;;;;;;;16.85;11.52;;;3.20;99.90;;;;;;5027172;28;20144;-74
2022/01/07 06:53:29;;;;;;;19.38;11.02;;;3.20;99.90;;;;;;5023985;28;20103;-74
2022/01/07 06:55:55;;;;;;;17.85;11.68;;;3.20;99.90;;;;;;5022981;28;20055;-74
2022/01/07 06:58:20;;;;;;;16.52;12.23;;;3.20;99.90;;;;;;5026529;28;20045;-74
2022/01/07 07:00:46;;;;;;;17.02;10.98;;;3.20;99.90;;;;;;5041258;28;20053;-75
2022/01/07 07:03:11;;;;;;;21.63;12.38;;;3.30;99.90;;;;;;5028813;28;20076;-75
2022/01/07 07:05:37;;;;;;;20.05;12.57;;;3.30;99.90;;;;;;5030183;28;20045;-75
2022/01/07 07:08:03;;;;;;;21.35;12.27;;;3.30;99.90;;;;;;5029089;28;20445;-75
2022/01/07 07:10:28;;;;;;;19.73;12.98;;;3.30;99.90;;;;;;5028540;28;20049;-76
2022/01/07 07:12:54;;;;;;;19.73;12.57;;;3.30;99.90;;;;;;5013167;28;20053;-76
2022/01/07 07:15:20;;;;;;;17.40;12.07;;;3.40;99.90;;;;;;5006291;28;20049;-76
2022/01/07 07:17:45;;;;;;;21.17;12.80;;;3.40;99.90;;;;;;5024468;28;20057;-75
2022/01/07 07:20:13;;;;;;;21.88;12.80;;;3.40;99.90;;;;;;5025004;28;20056;-74
2022/01/07 07:22:39;;;;;;;20.48;12.38;;;3.50;99.90;;;;;;5012306;28;20041;-75
2022/01/07 07:25:05;;;;;;;19.60;13.25;;;3.50;99.90;;;;;;5024919;28;20095;-75
2022/01/07 07:27:30;;;;;;;20.17;12.50;;;3.50;99.90;;;;;;5023380;28;20114;-75
2022/01/07 07:29:56;;;;;;;21.88;13.60;;;3.60;99.90;;;;;;5025613;28;20045;-75
2022/01/07 07:32:23;;;;;;;21.50;12.85;;;3.60;99.90;;;;;;5006103;28;20108;-74
2022/01/07 07:34:58;;;;;;;18.63;12.60;;;3.60;99.90;;;;;;5013281;28;20448;-74
2022/01/07 07:37:24;;;;;;;21.98;13.13;;;3.60;99.90;;;;;;5001221;28;20304;-76
2022/01/07 07:39:50;;;;;;;21.55;13.45;;;3.60;99.90;;;;;;5003498;28;20110;-75
2022/01/07 07:42:16;;;;;;;23.17;14.43;;;3.60;99.90;;;;;;5011520;28;20076;-75
2022/01/07 07:44:42;;;;;;;23.23;13.23;;;3.60;99.90;;;;;;5018372;28;20052;-75
2022/01/07 07:47:07;;;;;;;25.45;14.75;;;3.60;99.90;;;;;;4998273;28;20128;-75
2022/01/07 07:49:33;;;;;;;22.40;14.00;;;3.60;99.90;;;;;;5004118;28;20092;-74
2022/01/07 07:51:59;;;;;;;28.92;14.18;;;3.60;99.90;;;;;;5015137;28;20046;-75
2022/01/07 07:54:24;;;;;;;29.05;15.63;;;3.60;99.90;;;;;;5004164;28;21751;-76
2022/01/07 07:56:50;;;;;;;26.45;15.40;;;3.70;99.90;;;;;;5047928;28;20043;-75
2022/01/07 07:59:16;;;;;;;26.20;15.85;;;3.70;99.90;;;;;;5010537;28;20042;-75
2022/01/07 08:01:42;;;;;;;31.13;17.20;;;3.70;99.90;;;;;;5017362;28;20056;-75
2022/01/07 08:04:11;;;;;;;24.92;15.32;;;3.70;99.90;;;;;;5010863;28;20045;-74
2022/01/07 08:06:37;;;;;;;29.65;16.30;;;3.80;99.90;;;;;;5015713;28;20552;-75
2022/01/07 08:09:03;;;;;;;28.92;16.67;;;3.80;99.90;;;;;;5017104;28;20045;-75
2022/01/07 08:11:32;;;;;;;28.20;15.40;;;3.80;99.90;;;;;;5011972;28;20827;-75
2022/01/07 08:16:42;;;;;;;31.55;16.15;;;3.80;99.90;;;;;;5011250;28;20049;-75
2022/01/07 08:19:08;;;;;;;29.25;15.93;;;3.80;99.90;;;;;;4991434;28;20088;-75
2022/01/07 08:21:33;;;;;;;32.00;16.60;;;3.90;99.90;;;;;;5000127;28;20041;-75
2022/01/07 08:24:00;;;;;;;29.85;16.35;;;3.80;99.90;;;;;;5011142;28;20132;-75
2022/01/07 08:26:26;;;;;;;30.77;16.98;;;3.90;99.90;;;;;;5015073;28;20123;-75
2022/01/07 08:28:59;;;;;;;30.30;16.98;;;3.90;99.90;;;;;;5014894;28;20041;-74
2022/01/07 08:36:41;;;;;;;34.90;17.13;;;4.00;99.90;;;;;;5014496;28;20049;-74
2022/01/07 08:39:09;;;;;;;28.88;16.58;;;4.00;99.90;;;;;;5019691;28;20047;-74
2022/01/07 08:41:36;;;;;;;32.03;17.00;;;4.00;99.90;;;;;;5015159;28;20526;-73
2022/01/07 08:44:02;;;;;;;24.00;17.00;;;4.00;99.90;;;;;;5038117;28;20188;-75
2022/01/07 08:46:29;;;;;;;30.75;17.92;;;4.00;99.90;;;;;;5001813;28;20041;-74
2022/01/07 08:48:56;;;;;;;26.17;17.05;;;4.10;99.90;;;;;;5003894;28;20162;-74
2022/01/07 08:51:21;;;;;;;26.27;16.40;;;4.40;99.90;;;;;;5047746;28;20060;-74
2022/01/07 08:53:50;;;;;;;31.75;17.05;;;4.10;99.90;;;;;;5023190;28;20486;-74
2022/01/07 08:56:16;;;;;;;29.10;17.02;;;4.10;99.90;;;;;;5001853;28;20053;-75
2022/01/07 08:58:43;;;;;;;32.47;17.00;;;4.10;99.90;;;;;;5005754;28;20037;-75
2022/01/07 09:01:09;;;;;;;30.45;17.30;;;4.10;99.90;;;;;;5004409;28;20468;-75
2022/01/07 09:03:34;;;;;;;26.80;16.38;;;4.20;99.90;;;;;;4997011;28;20071;-75
2022/01/07 09:06:00;;;;;;;28.00;17.25;;;4.20;99.90;;;;;;5050317;28;20059;-73
2022/01/07 09:08:26;;;;;;;38.53;19.40;;;4.20;99.90;;;;;;4995112;28;20049;-74
2022/01/07 09:10:52;;;;;;;31.40;18.75;;;4.20;99.90;;;;;;5015455;28;20428;-75
2022/01/07 09:13:20;;;;;;;27.70;17.77;;;4.30;99.90;;;;;;5043973;28;20054;-75
2022/01/07 09:15:46;;;;;;;34.72;18.83;;;4.30;99.90;;;;;;5013672;28;20102;-74
2022/01/07 09:18:12;;;;;;;27.33;17.17;;;4.40;99.90;;;;;;5019544;28;20755;-75
2022/01/07 09:20:43;;;;;;;35.53;18.17;;;4.40;99.90;;;;;;5049543;28;20060;-74
2022/01/07 09:23:09;;;;;;;34.55;20.17;;;4.40;99.90;;;;;;5010110;28;20455;-74
2022/01/07 09:25:35;;;;;;;36.55;18.52;;;4.40;99.90;;;;;;5005770;28;20063;-75
2022/01/07 09:28:02;;;;;;;36.50;19.63;;;4.40;99.90;;;;;;5015441;28;20049;-74
2022/01/07 09:30:27;;;;;;;33.03;17.98;;;4.50;99.90;;;;;;5001287;28;20154;-74
2022/01/07 09:32:53;;;;;;;29.42;18.40;;;4.50;99.90;;;;;;5014718;28;20049;-74
2022/01/07 09:35:19;;;;;;;31.17;18.50;;;4.50;99.90;;;;;;4998691;28;20075;-74
2022/01/07 09:37:45;;;;;;;43.42;18.60;;;4.50;99.90;;;;;;5011504;28;20048;-75
2022/01/07 09:40:12;;;;;;;31.13;17.98;;;4.60;99.90;;;;;;4996964;28;20429;-75
2022/01/07 09:42:39;;;;;;;35.47;16.35;;;4.60;99.90;;;;;;5016826;28;20040;-74
2022/01/07 09:45:05;;;;;;;32.15;16.42;;;4.70;99.90;;;;;;5047743;28;20095;-74
2022/01/07 09:47:31;;;;;;;33.90;15.95;;;4.70;99.90;;;;;;5010866;28;20053;-74
2022/01/07 09:49:57;;;;;;;24.98;15.32;;;4.70;99.90;;;;;;5005071;28;20250;-75
2022/01/07 09:52:25;;;;;;;23.38;14.32;;;4.70;99.90;;;;;;5021255;28;20041;-74
2022/01/07 09:54:51;;;;;;;25.63;14.10;;;4.70;99.90;;;;;;5015698;28;20647;-74
2022/01/07 09:57:16;;;;;;;20.67;12.68;;;4.60;99.90;;;;;;5016292;28;20321;-74
2022/01/07 09:59:50;;;;;;;20.33;10.95;;;4.60;99.90;;;;;;5018368;28;20142;-74
2022/01/07 10:02:17;;;;;;;26.50;10.88;;;4.60;99.90;;;;;;5034189;28;20046;-75
2022/01/07 10:04:43;;;;;;;16.60;9.40;;;4.60;99.90;;;;;;5007068;28;20394;-74
2022/01/07 10:07:20;;;;;;;17.08;9.88;;;4.50;99.90;;;;;;5018821;28;20461;-74
2022/01/07 10:10:06;;;;;;;13.00;6.80;;;4.50;99.90;;;;;;5018769;28;20029;-75
2022/01/07 10:12:50;;;;;;;9.25;5.28;;;4.50;99.90;;;;;;5023684;28;20443;-74
2022/01/07 10:15:25;;;;;;;9.57;5.22;;;4.40;99.90;;;;;;5023834;28;20695;-75
2022/01/07 10:17:58;;;;;;;12.73;6.15;;;4.40;99.90;;;;;;5002545;28;20155;-74
2022/01/07 10:20:27;;;;;;;10.18;5.90;;;4.40;99.90;;;;;;5005946;28;20053;-74
2022/01/07 10:23:00;;;;;;;10.88;5.95;;;4.40;99.90;;;;;;5016695;28;20052;-74
2022/01/07 10:25:32;;;;;;;11.80;6.03;;;4.30;99.90;;;;;;5035252;28;20505;-75
2022/01/07 10:28:03;;;;;;;11.70;5.65;;;4.30;99.90;;;;;;5013433;28;20042;-75
2022/01/07 10:30:42;;;;;;;12.38;5.18;;;4.30;99.90;;;;;;5044164;28;20406;-74
2022/01/07 10:33:23;;;;;;;12.63;4.75;;;4.40;99.90;;;;;;5016665;28;20046;-74
2022/01/07 10:36:10;;;;;;;12.20;4.45;;;4.50;99.90;;;;;;5029829;28;20140;-75
2022/01/07 10:38:54;;;;;;;11.60;4.30;;;4.60;99.90;;;;;;5032279;28;20459;-75
2022/01/07 10:41:21;;;;;;;7.72;3.67;;;4.70;99.90;;;;;;5011193;28;20049;-75
2022/01/07 10:43:47;;;;;;;11.27;2.75;;;4.70;99.90;;;;;;5021463;28;20533;-74
2022/01/07 10:46:26;;;;;;;9.65;3.15;;;4.60;99.90;;;;;;5017160;28;20050;-74
2022/01/07 10:48:57;;;;;;;10.93;2.35;;;4.60;99.90;;;;;;5026690;28;20406;-74
2022/01/07 10:51:26;;;;;;;7.07;2.40;;;4.50;99.90;;;;;;5015633;28;20048;-74
2022/01/07 10:53:55;;;;;;;7.43;2.70;;;4.50;99.90;;;;;;5008669;28;20099;-74
2022/01/07 10:56:23;;;;;;;5.60;2.00;;;4.40;99.90;;;;;;5016963;28;20046;-75
2022/01/07 10:58:55;;;;;;;10.88;2.40;;;4.40;99.90;;;;;;5012273;28;20044;-75
2022/01/07 11:01:21;;;;;;;10.48;2.13;;;4.40;99.90;;;;;;5004835;28;20050;-75
2022/01/07 11:03:54;;;;;;;9.82;2.15;;;4.40;99.90;;;;;;5022438;28;20047;-75
2022/01/07 11:06:21;;;;;;;8.65;1.92;;;4.40;99.90;;;;;;5019791;28;20131;-75
2022/01/07 11:08:49;;;;;;;9.13;2.50;;;4.30;99.90;;;;;;5002495;28;20041;-74
2022/01/07 11:11:15;;;;;;;8.60;2.40;;;4.40;99.90;;;;;;5017137;28;20083;-75
2022/01/07 11:13:42;;;;;;;8.30;2.40;;;4.40;99.90;;;;;;5020183;28;20145;-74
2022/01/07 11:16:08;;;;;;;7.38;2.65;;;4.40;99.90;;;;;;5009161;28;20099;-74
2022/01/07 11:18:40;;;;;;;10.02;3.28;;;4.50;99.90;;;;;;5019572;28;20052;-74
2022/01/07 11:21:07;;;;;;;12.07;3.55;;;4.50;99.90;;;;;;5005030;28;20049;-75
2022/01/07 11:23:37;;;;;;;16.13;4.85;;;4.40;99.90;;;;;;4994546;28;20049;-74
2022/01/07 11:26:10;;;;;;;8.45;3.38;;;4.50;99.90;;;;;;5018894;28;20044;-75
2022/01/07 11:28:52;;;;;;;12.52;4.03;;;4.50;99.90;;;;;;5001245;28;20056;-74
2022/01/07 11:31:18;;;;;;;12.38;4.60;;;4.60;99.90;;;;;;4982993;28;20056;-75
2022/01/07 11:33:43;;;;;;;10.90;5.07;;;4.60;99.90;;;;;;5021797;28;20041;-75
2022/01/07 11:36:32;;;;;;;16.80;6.18;;;4.70;99.90;;;;;;5013727;28;20076;-75
2022/01/07 11:39:04;;;;;;;14.70;6.03;;;4.70;99.90;;;;;;5011375;28;20370;-75
2022/01/07 11:41:48;;;;;;;15.13;6.35;;;4.80;99.90;;;;;;5011852;28;20115;-75
2022/01/07 11:44:20;;;;;;;15.60;6.60;;;4.90;99.90;;;;;;5012866;28;20053;-75
2022/01/07 11:46:46;;;;;;;20.17;7.72;;;5.00;99.90;;;;;;5012029;28;20049;-75
2022/01/07 11:49:33;;;;;;;17.42;7.28;;;5.00;99.90;;;;;;5007344;28;21414;-74
2022/01/07 11:52:29;;;;;;;15.82;6.95;;;5.10;99.90;;;;;;4995428;28;20483;-73
2022/01/07 11:55:21;;;;;;;21.00;7.50;;;5.10;99.90;;;;;;4994916;28;20050;-75
2022/01/07 11:57:55;;;;;;;13.13;7.05;;;5.20;99.90;;;;;;5008483;28;20526;-75
2022/01/07 12:00:46;;;;;;;20.35;7.63;;;5.60;99.90;;;;;;5001748;28;20561;-74
2022/01/07 12:03:12;;;;;;;18.10;7.13;;;5.20;99.90;;;;;;4995063;28;20045;-75
2022/01/07 12:05:38;;;;;;;19.67;7.78;;;5.20;99.90;;;;;;5023794;28;20304;-75
2022/01/07 12:08:03;;;;;;;19.33;6.78;;;5.10;99.90;;;;;;5022712;28;20078;-75
2022/01/07 12:10:29;;;;;;;18.70;6.88;;;5.10;99.90;;;;;;5008144;28;20215;-75
2022/01/07 12:13:00;;;;;;;16.88;7.13;;;5.10;99.90;;;;;;5014494;28;20057;-74
2022/01/07 12:15:27;;;;;;;19.13;6.90;;;5.20;99.90;;;;;;5014192;28;21442;-75
2022/01/07 12:17:53;;;;;;;16.33;7.22;;;5.20;99.90;;;;;;5016954;28;20049;-75
2022/01/07 12:20:49;;;;;;;27.35;7.75;;;5.40;99.90;;;;;;5000979;28;20131;-74
2022/01/07 12:23:20;;;;;;;17.50;6.82;;;5.50;99.90;;;;;;4995456;28;20612;-74
2022/01/07 12:25:50;;;;;;;19.20;8.05;;;5.50;99.90;;;;;;5033821;28;20571;-74
2022/01/07 12:28:16;;;;;;;15.57;6.53;;;5.60;99.90;;;;;;5029118;28;20045;-74
2022/01/07 12:30:43;;;;;;;17.05;6.47;;;5.60;99.90;;;;;;5049336;28;20045;-74
2022/01/07 12:33:10;;;;;;;13.60;5.85;;;5.60;99.90;;;;;;5001870;28;20663;-74
2022/01/07 12:35:37;;;;;;;16.08;5.30;;;6.00;99.90;;;;;;5002715;28;20115;-74
2022/01/07 12:38:17;;;;;;;18.92;5.45;;;5.60;99.90;;;;;;4995681;28;20531;-73
2022/01/07 12:40:51;;;;;;;13.45;4.47;;;5.50;99.90;;;;;;5017775;28;20041;-74
2022/01/07 12:43:20;;;;;;;11.70;3.53;;;5.50;99.90;;;;;;5028834;28;20095;-74
2022/01/07 12:45:59;;;;;;;13.27;3.55;;;5.50;99.90;;;;;;5018485;28;20136;-73
2022/01/07 12:48:33;;;;;;;11.98;2.97;;;5.50;99.90;;;;;;5034934;28;20481;-73
2022/01/07 12:51:03;;;;;;;14.35;2.78;;;5.50;99.90;;;;;;5032602;28;21530;-74
2022/01/07 12:53:29;;;;;;;10.35;3.10;;;5.40;99.90;;;;;;5014652;28;21579;-74